sensor_id;sensor_type;location;lat;lon;timestamp;pressure;altitude;pressure_sealevel;temperature;humidity
33486;BME280;19824;52.098;5.004;2023-02-21T06:01:31;102030.41;;;11.30;93.06
33486;BME280;19824;52.098;5.004;2023-02-21T06:04:16;102024.09;;;11.42;92.67
33486;BME280;19824;52.098;5.004;2023-02-21T06:06:46;102014.53;;;11.39;92.82
33486;BME280;19824;52.098;5.004;2023-02-21T06:09:22;102017.53;;;11.35;92.99
33486;BME280;19824;52.098;5.004;2023-02-21T06:11:55;102027.22;;;11.36;92.96
33486;BME280;19824;52.098;5.004;2023-02-21T06:14:32;102035.22;;;11.36;92.99
33486;BME280;19824;52.098;5.004;2023-02-21T06:17:05;102029.06;;;11.35;93.32
33486;BME280;19824;52.098;5.004;2023-02-21T06:19:41;102035.88;;;11.39;93.12
33486;BME280;19824;52.098;5.004;2023-02-21T06:22:14;102034.78;;;11.42;92.97
33486;BME280;19824;52.098;5.004;2023-02-21T06:24:51;102032.84;;;11.44;92.57
33486;BME280;19824;52.098;5.004;2023-02-21T06:27:21;102031.50;;;11.38;93.03
33486;BME280;19824;52.098;5.004;2023-02-21T06:29:57;102036.19;;;11.35;93.02
33486;BME280;19824;52.098;5.004;2023-02-21T06:32:30;102031.59;;;11.37;93.52
33486;BME280;19824;52.098;5.004;2023-02-21T06:35:07;102041.53;;;11.35;93.20
33486;BME280;19824;52.098;5.004;2023-02-21T06:37:43;102045.81;;;11.37;93.34
33486;BME280;19824;52.098;5.004;2023-02-21T06:40:13;102034.16;;;11.38;93.63
33486;BME280;19824;52.098;5.004;2023-02-21T06:42:50;102039.72;;;11.35;93.20
33486;BME280;19824;52.098;5.004;2023-02-21T06:45:26;102039.59;;;11.37;93.50
33486;BME280;19824;52.098;5.004;2023-02-21T06:47:59;102038.63;;;11.38;93.44
33486;BME280;19824;52.098;5.004;2023-02-21T06:50:36;102039.28;;;11.41;93.06
33486;BME280;19824;52.098;5.004;2023-02-21T06:53:06;102046.91;;;11.46;93.10
33486;BME280;19824;52.098;5.004;2023-02-21T06:55:42;102046.31;;;11.42;93.64
33486;BME280;19824;52.098;5.004;2023-02-21T06:58:13;102050.53;;;11.45;93.17
33486;BME280;19824;52.098;5.004;2023-02-21T07:00:49;102052.47;;;11.43;93.45
33486;BME280;19824;52.098;5.004;2023-02-21T07:03:22;102047.13;;;11.43;93.55
33486;BME280;19824;52.098;5.004;2023-02-21T07:05:58;102046.31;;;11.42;92.86
33486;BME280;19824;52.098;5.004;2023-02-21T07:08:34;102051.38;;;11.45;92.66
33486;BME280;19824;52.098;5.004;2023-02-21T07:11:05;102045.31;;;11.43;93.30
33486;BME280;19824;52.098;5.004;2023-02-21T07:13:48;102045.66;;;11.39;93.85
33486;BME280;19824;52.098;5.004;2023-02-21T07:16:19;102047.97;;;11.43;92.98
33486;BME280;19824;52.098;5.004;2023-02-21T07:18:59;102037.56;;;11.40;93.23
33486;BME280;19824;52.098;5.004;2023-02-21T07:21:30;102042.63;;;11.43;93.07
33486;BME280;19824;52.098;5.004;2023-02-21T07:24:06;102039.38;;;11.40;93.26
33486;BME280;19824;52.098;5.004;2023-02-21T07:26:43;102035.50;;;11.44;92.76
33486;BME280;19824;52.098;5.004;2023-02-21T07:29:14;102038.03;;;11.45;93.42
33486;BME280;19824;52.098;5.004;2023-02-21T07:31:50;102033.06;;;11.41;93.61
33486;BME280;19824;52.098;5.004;2023-02-21T07:34:23;102031.13;;;11.43;93.55
33486;BME280;19824;52.098;5.004;2023-02-21T07:36:59;102032.84;;;11.44;93.15
33486;BME280;19824;52.098;5.004;2023-02-21T07:39:29;102041.34;;;11.49;93.01
33486;BME280;19824;52.098;5.004;2023-02-21T07:42:06;102040.97;;;11.42;93.06
33486;BME280;19824;52.098;5.004;2023-02-21T07:44:42;102037.94;;;11.47;92.82
33486;BME280;19824;52.098;5.004;2023-02-21T07:47:13;102047.97;;;11.43;93.82
33486;BME280;19824;52.098;5.004;2023-02-21T07:49:52;102042.16;;;11.49;93.50
33486;BME280;19824;52.098;5.004;2023-02-21T07:52:29;102041.06;;;11.52;93.25
33486;BME280;19824;52.098;5.004;2023-02-21T07:54:59;102051.28;;;11.47;93.06
33486;BME280;19824;52.098;5.004;2023-02-21T07:57:36;102048.38;;;11.50;93.08
33486;BME280;19824;52.098;5.004;2023-02-21T08:00:09;102043.50;;;11.44;92.90
33486;BME280;19824;52.098;5.004;2023-02-21T08:02:47;102055.50;;;11.49;93.44
33486;BME280;19824;52.098;5.004;2023-02-21T08:05:20;102052.97;;;11.48;93.56
33486;BME280;19824;52.098;5.004;2023-02-21T08:07:57;102047.50;;;11.49;93.64
33486;BME280;19824;52.098;5.004;2023-02-21T08:10:27;102055.28;;;11.52;93.46
33486;BME280;19824;52.098;5.004;2023-02-21T08:13:04;102049.84;;;11.54;93.22
33486;BME280;19824;52.098;5.004;2023-02-21T08:15:35;102058.78;;;11.53;93.11
33486;BME280;19824;52.098;5.004;2023-02-21T08:18:15;102060.50;;;11.54;93.15
33486;BME280;19824;52.098;5.004;2023-02-21T08:20:54;102052.59;;;11.52;92.75
33486;BME280;19824;52.098;5.004;2023-02-21T08:23:32;102057.94;;;11.52;92.83
33486;BME280;19824;52.098;5.004;2023-02-21T08:26:03;102064.38;;;11.50;93.52
33486;BME280;19824;52.098;5.004;2023-02-21T08:28:39;102063.19;;;11.54;93.82
33486;BME280;19824;52.098;5.004;2023-02-21T08:31:12;102060.28;;;11.57;93.02
33486;BME280;19824;52.098;5.004;2023-02-21T08:33:48;102064.78;;;11.56;93.61
33486;BME280;19824;52.098;5.004;2023-02-21T08:36:33;102062.22;;;11.55;92.84
33486;BME280;19824;52.098;5.004;2023-02-21T08:39:06;102054.41;;;11.52;93.15
33486;BME280;19824;52.098;5.004;2023-02-21T08:41:44;102052.72;;;11.51;93.47
33486;BME280;19824;52.098;5.004;2023-02-21T08:44:17;102061.16;;;11.57;92.61
33486;BME280;19824;52.098;5.004;2023-02-21T08:46:54;102056.78;;;11.56;93.16
33486;BME280;19824;52.098;5.004;2023-02-21T08:49:31;102050.78;;;11.53;92.88
33486;BME280;19824;52.098;5.004;2023-02-21T08:52:08;102051.75;;;11.52;93.72
33486;BME280;19824;52.098;5.004;2023-02-21T08:54:44;102051.75;;;11.52;93.24
33486;BME280;19824;52.098;5.004;2023-02-21T08:57:14;102051.53;;;11.55;93.25
33486;BME280;19824;52.098;5.004;2023-02-21T08:59:52;102048.88;;;11.55;93.52
33486;BME280;19824;52.098;5.004;2023-02-21T09:02:23;102047.66;;;11.59;93.33
33486;BME280;19824;52.098;5.004;2023-02-21T09:05:00;102047.91;;;11.56;93.08
33486;BME280;19824;52.098;5.004;2023-02-21T09:07:33;102050.78;;;11.53;94.14
33486;BME280;19824;52.098;5.004;2023-02-21T09:10:10;102043.88;;;11.50;93.89
33486;BME280;19824;52.098;5.004;2023-02-21T09:12:40;102045.56;;;11.51;93.53
33486;BME280;19824;52.098;5.004;2023-02-21T09:15:17;102040.63;;;11.58;93.68
33486;BME280;19824;52.098;5.004;2023-02-21T09:17:47;102035.53;;;11.55;93.96
33486;BME280;19824;52.098;5.004;2023-02-21T09:20:25;102041.47;;;11.58;93.36
33486;BME280;19824;52.098;5.004;2023-02-21T09:22:57;102038.19;;;11.55;94.41
33486;BME280;19824;52.098;5.004;2023-02-21T09:25:34;102033.59;;;11.57;94.42
33486;BME280;19824;52.098;5.004;2023-02-21T09:28:04;102029.50;;;11.64;94.29
33486;BME280;19824;52.098;5.004;2023-02-21T09:30:42;102026.34;;;11.59;94.46
33486;BME280;19824;52.098;5.004;2023-02-21T09:33:13;102025.38;;;11.60;94.32
33486;BME280;19824;52.098;5.004;2023-02-21T09:35:51;102024.88;;;11.55;94.36
33486;BME280;19824;52.098;5.004;2023-02-21T09:38:24;102028.50;;;11.54;94.75
33486;BME280;19824;52.098;5.004;2023-02-21T09:41:04;102018.56;;;11.56;94.20
33486;BME280;19824;52.098;5.004;2023-02-21T09:43:37;102025.94;;;11.52;94.49
33486;BME280;19824;52.098;5.004;2023-02-21T09:46:20;102024.63;;;11.58;94.05
33486;BME280;19824;52.098;5.004;2023-02-21T09:48:51;102019.53;;;11.55;95.04
33486;BME280;19824;52.098;5.004;2023-02-21T09:51:30;102013.13;;;11.57;95.08
33486;BME280;19824;52.098;5.004;2023-02-21T09:54:05;102018.81;;;11.64;94.52
33486;BME280;19824;52.098;5.004;2023-02-21T09:56:48;102004.50;;;11.65;95.09
33486;BME280;19824;52.098;5.004;2023-02-21T09:59:19;102015.78;;;11.68;95.06
33486;BME280;19824;52.098;5.004;2023-02-21T10:02:14;102007.06;;;11.66;94.76
33486;BME280;19824;52.098;5.004;2023-02-21T10:05:02;102008.63;;;11.68;94.11
33486;BME280;19824;52.098;5.004;2023-02-21T10:07:44;102003.91;;;11.72;94.29
33486;BME280;19824;52.098;5.004;2023-02-21T10:10:31;102005.94;;;11.68;94.60
33486;BME280;19824;52.098;5.004;2023-02-21T10:13:27;102001.56;;;11.68;94.88
33486;BME280;19824;52.098;5.004;2023-02-21T10:16:03;102004.50;;;11.75;94.87
33486;BME280;19824;52.098;5.004;2023-02-21T10:18:47;102004.88;;;11.71;94.60
33486;BME280;19824;52.098;5.004;2023-02-21T10:21:27;101998.69;;;11.70;95.06
33486;BME280;19824;52.098;5.004;2023-02-21T10:24:13;102000.38;;;11.71;94.76
33486;BME280;19824;52.098;5.004;2023-02-21T10:26:51;101994.78;;;11.74;94.83
33486;BME280;19824;52.098;5.004;2023-02-21T10:29:38;102003.28;;;11.79;95.28
33486;BME280;19824;52.098;5.004;2023-02-21T10:32:09;102002.78;;;11.85;95.31
33486;BME280;19824;52.098;5.004;2023-02-21T10:34:47;102001.56;;;11.89;94.76
33486;BME280;19824;52.098;5.004;2023-02-21T10:37:36;102007.88;;;11.88;95.00
33486;BME280;19824;52.098;5.004;2023-02-21T10:40:28;102007.88;;;11.88;94.93
33486;BME280;19824;52.098;5.004;2023-02-21T10:43:08;102002.06;;;11.94;94.63
33486;BME280;19824;52.098;5.004;2023-02-21T10:45:55;102005.91;;;12.01;94.41
33486;BME280;19824;52.098;5.004;2023-02-21T10:48:33;102010.06;;;11.94;95.08
33486;BME280;19824;52.098;5.004;2023-02-21T10:51:13;102005.44;;;11.96;94.70
33486;BME280;19824;52.098;5.004;2023-02-21T10:53:46;102004.59;;;11.96;95.13
33486;BME280;19824;52.098;5.004;2023-02-21T10:56:26;102010.53;;;11.99;95.27
33486;BME280;19824;52.098;5.004;2023-02-21T10:59:06;102006.44;;;11.95;95.00
33486;BME280;19824;52.098;5.004;2023-02-21T11:01:40;102001.31;;;12.03;95.12
33486;BME280;19824;52.098;5.004;2023-02-21T11:04:30;102005.81;;;12.03;94.85
33486;BME280;19824;52.098;5.004;2023-02-21T11:07:05;101997.81;;;12.03;94.60
33486;BME280;19824;52.098;5.004;2023-02-21T11:09:44;102009.19;;;12.05;94.86
33486;BME280;19824;52.098;5.004;2023-02-21T11:12:23;101995.97;;;12.03;95.16
33486;BME280;19824;52.098;5.004;2023-02-21T11:15:17;102000.47;;;12.03;94.74
33486;BME280;19824;52.098;5.004;2023-02-21T11:18:11;101994.16;;;12.04;94.57
33486;BME280;19824;52.098;5.004;2023-02-21T11:20:43;101995.72;;;12.06;94.77
33486;BME280;19824;52.098;5.004;2023-02-21T11:23:23;101991.50;;;12.04;94.38
33486;BME280;19824;52.098;5.004;2023-02-21T11:25:59;101991.34;;;12.05;94.47
33486;BME280;19824;52.098;5.004;2023-02-21T11:28:42;101991.59;;;12.02;94.85
33486;BME280;19824;52.098;5.004;2023-02-21T11:31:21;101987.00;;;12.04;94.56
33486;BME280;19824;52.098;5.004;2023-02-21T11:34:04;101983.47;;;12.04;94.76
33486;BME280;19824;52.098;5.004;2023-02-21T11:36:38;101982.38;;;12.06;94.39
33486;BME280;19824;52.098;5.004;2023-02-21T11:39:18;101983.47;;;12.04;93.84
33486;BME280;19824;52.098;5.004;2023-02-21T11:41:55;101987.22;;;12.01;94.80
33486;BME280;19824;52.098;5.004;2023-02-21T11:44:35;101980.69;;;12.05;93.71
33486;BME280;19824;52.098;5.004;2023-02-21T11:47:13;101979.59;;;11.97;93.70
33486;BME280;19824;52.098;5.004;2023-02-21T11:50:05;101980.09;;;12.02;94.16
33486;BME280;19824;52.098;5.004;2023-02-21T11:52:42;101977.75;;;11.97;93.73
33486;BME280;19824;52.098;5.004;2023-02-21T11:55:23;101971.00;;;11.93;93.93
33486;BME280;19824;52.098;5.004;2023-02-21T11:58:04;101978.03;;;11.94;94.37
33486;BME280;19824;52.098;5.004;2023-02-21T12:00:47;101979.84;;;11.94;94.56
33486;BME280;19824;52.098;5.004;2023-02-21T12:06:50;101972.19;;;12.00;94.13
33486;BME280;19824;52.098;5.004;2023-02-21T12:09:28;101967.56;;;12.02;93.78
33486;BME280;19824;52.098;5.004;2023-02-21T12:12:26;101972.06;;;12.02;94.27
33486;BME280;19824;52.098;5.004;2023-02-21T12:15:08;101973.63;;;12.04;94.27
33486;BME280;19824;52.098;5.004;2023-02-21T12:18:04;101966.84;;;12.00;93.78
33486;BME280;19824;52.098;5.004;2023-02-21T12:21:18;101964.69;;;11.94;94.02
33486;BME280;19824;52.098;5.004;2023-02-21T12:24:18;101957.63;;;12.04;93.56
33486;BME280;19824;52.098;5.004;2023-02-21T12:26:57;101957.22;;;12.09;94.03
33486;BME280;19824;52.098;5.004;2023-02-21T12:29:55;101949.38;;;12.07;93.84
33486;BME280;19824;52.098;5.004;2023-02-21T12:32:49;101957.38;;;12.07;93.56
33486;BME280;19824;52.098;5.004;2023-02-21T12:36:04;101951.44;;;12.04;93.12
33486;BME280;19824;52.098;5.004;2023-02-21T12:38:58;101953.97;;;12.05;93.35
33486;BME280;19824;52.098;5.004;2023-02-21T12:41:46;101951.44;;;12.04;93.68
33486;BME280;19824;52.098;5.004;2023-02-21T12:44:32;101949.38;;;12.07;93.40
33486;BME280;19824;52.098;5.004;2023-02-21T12:47:11;101949.38;;;12.07;93.62
33486;BME280;19824;52.098;5.004;2023-02-21T12:49:57;101944.28;;;12.04;93.10
33486;BME280;19824;52.098;5.004;2023-02-21T12:52:37;101952.16;;;12.06;93.59
33486;BME280;19824;52.098;5.004;2023-02-21T12:55:21;101940.03;;;12.02;93.44
33486;BME280;19824;52.098;5.004;2023-02-21T12:57:57;101944.50;;;12.01;94.38
33486;BME280;19824;52.098;5.004;2023-02-21T13:00:40;101935.16;;;12.07;93.86
33486;BME280;19824;52.098;5.004;2023-02-21T13:03:35;101939.66;;;12.06;93.15
33486;BME280;19824;52.098;5.004;2023-02-21T13:06:20;101929.69;;;12.08;93.89
33486;BME280;19824;52.098;5.004;2023-02-21T13:09:14;101930.69;;;12.07;93.89
33486;BME280;19824;52.098;5.004;2023-02-21T13:12:02;101934.66;;;12.13;94.23
33486;BME280;19824;52.098;5.004;2023-02-21T13:14:39;101932.56;;;12.16;93.58
33486;BME280;19824;52.098;5.004;2023-02-21T13:17:17;101927.97;;;12.18;94.11
33486;BME280;19824;52.098;5.004;2023-02-21T13:19:52;101923.09;;;12.23;93.71
33486;BME280;19824;52.098;5.004;2023-02-21T13:22:45;101918.16;;;12.19;94.36
33486;BME280;19824;52.098;5.004;2023-02-21T13:25:38;101921.00;;;12.27;93.64
33486;BME280;19824;52.098;5.004;2023-02-21T13:28:21;101915.28;;;12.31;93.81
33486;BME280;19824;52.098;5.004;2023-02-21T13:30:56;101918.66;;;12.33;93.42
33486;BME280;19824;52.098;5.004;2023-02-21T13:33:37;101913.00;;;12.27;92.77
33486;BME280;19824;52.098;5.004;2023-02-21T13:36:22;101908.78;;;12.24;93.45
33486;BME280;19824;52.098;5.004;2023-02-21T13:39:10;101912.16;;;12.26;93.43
33486;BME280;19824;52.098;5.004;2023-02-21T13:41:47;101906.53;;;12.29;92.91
33486;BME280;19824;52.098;5.004;2023-02-21T13:44:27;101909.50;;;12.26;93.33
33486;BME280;19824;52.098;5.004;2023-02-21T13:47:16;101909.28;;;12.18;92.92
33486;BME280;19824;52.098;5.004;2023-02-21T13:49:53;101903.44;;;12.24;93.47
33486;BME280;19824;52.098;5.004;2023-02-21T13:53:17;101903.09;;;12.18;92.43
33486;BME280;19824;52.098;5.004;2023-02-21T13:56:40;101896.41;;;12.12;92.77
33486;BME280;19824;52.098;5.004;2023-02-21T13:59:37;101900.78;;;12.13;92.19
